sensor_id;sensor_type;location;lat;lon;timestamp;P1;durP1;ratioP1;P2;durP2;ratioP2
32780;SDS011;19136;47.032;15.502;2023-06-24T00:01:26;13.25;;;7.78;;
32780;SDS011;19136;47.032;15.502;2023-06-24T00:03:51;14.68;;;7.90;;
32780;SDS011;19136;47.032;15.502;2023-06-24T00:06:18;18.42;;;8.68;;
32780;SDS011;19136;47.032;15.502;2023-06-24T00:08:45;12.82;;;8.30;;
32780;SDS011;19136;47.032;15.502;2023-06-24T00:11:11;14.00;;;8.63;;
32780;SDS011;19136;47.032;15.502;2023-06-24T00:13:38;13.32;;;7.75;;
32780;SDS011;19136;47.032;15.502;2023-06-24T00:16:04;15.18;;;8.57;;
32780;SDS011;19136;47.032;15.502;2023-06-24T00:18:35;13.20;;;8.23;;
32780;SDS011;19136;47.032;15.502;2023-06-24T00:21:02;15.70;;;7.55;;
32780;SDS011;19136;47.032;15.502;2023-06-24T00:23:28;15.98;;;7.75;;
32780;SDS011;19136;47.032;15.502;2023-06-24T00:25:55;19.85;;;8.13;;
32780;SDS011;19136;47.032;15.502;2023-06-24T00:28:22;18.25;;;7.55;;
32780;SDS011;19136;47.032;15.502;2023-06-24T00:30:48;12.93;;;7.85;;
32780;SDS011;19136;47.032;15.502;2023-06-24T00:33:14;12.10;;;7.63;;
32780;SDS011;19136;47.032;15.502;2023-06-24T00:35:41;18.27;;;9.07;;
32780;SDS011;19136;47.032;15.502;2023-06-24T00:38:08;18.17;;;7.85;;
32780;SDS011;19136;47.032;15.502;2023-06-24T00:40:34;23.30;;;9.98;;
32780;SDS011;19136;47.032;15.502;2023-06-24T00:43:00;15.88;;;8.90;;
32780;SDS011;19136;47.032;15.502;2023-06-24T00:45:27;14.48;;;8.25;;
32780;SDS011;19136;47.032;15.502;2023-06-24T00:47:55;18.33;;;8.75;;
32780;SDS011;19136;47.032;15.502;2023-06-24T00:50:21;15.68;;;8.18;;
32780;SDS011;19136;47.032;15.502;2023-06-24T00:52:47;16.65;;;7.18;;
32780;SDS011;19136;47.032;15.502;2023-06-24T00:55:15;17.25;;;9.10;;
32780;SDS011;19136;47.032;15.502;2023-06-24T00:57:43;20.33;;;8.50;;
32780;SDS011;19136;47.032;15.502;2023-06-24T01:00:11;13.85;;;7.22;;
32780;SDS011;19136;47.032;15.502;2023-06-24T01:02:42;15.98;;;9.52;;
32780;SDS011;19136;47.032;15.502;2023-06-24T01:05:09;17.33;;;8.50;;
32780;SDS011;19136;47.032;15.502;2023-06-24T01:07:39;14.43;;;7.43;;
32780;SDS011;19136;47.032;15.502;2023-06-24T01:10:06;13.73;;;7.57;;
32780;SDS011;19136;47.032;15.502;2023-06-24T01:12:36;13.30;;;7.85;;
32780;SDS011;19136;47.032;15.502;2023-06-24T01:15:07;16.38;;;7.75;;
32780;SDS011;19136;47.032;15.502;2023-06-24T01:17:35;13.23;;;7.20;;
32780;SDS011;19136;47.032;15.502;2023-06-24T01:23:14;13.00;;;8.05;;
32780;SDS011;19136;47.032;15.502;2023-06-24T01:26:09;18.00;;;8.13;;
32780;SDS011;19136;47.032;15.502;2023-06-24T01:34:10;13.20;;;7.25;;
32780;SDS011;19136;47.032;15.502;2023-06-24T01:36:41;15.00;;;7.60;;
32780;SDS011;19136;47.032;15.502;2023-06-24T01:39:11;17.23;;;7.07;;
32780;SDS011;19136;47.032;15.502;2023-06-24T01:41:41;18.98;;;7.93;;
32780;SDS011;19136;47.032;15.502;2023-06-24T01:44:13;16.17;;;7.20;;
32780;SDS011;19136;47.032;15.502;2023-06-24T01:46:41;16.90;;;7.68;;
32780;SDS011;19136;47.032;15.502;2023-06-24T01:49:07;11.77;;;7.45;;
32780;SDS011;19136;47.032;15.502;2023-06-24T01:51:35;11.32;;;7.47;;
32780;SDS011;19136;47.032;15.502;2023-06-24T01:54:02;14.23;;;7.93;;
32780;SDS011;19136;47.032;15.502;2023-06-24T01:56:30;11.43;;;6.85;;
32780;SDS011;19136;47.032;15.502;2023-06-24T01:58:57;17.92;;;7.70;;
32780;SDS011;19136;47.032;15.502;2023-06-24T02:01:24;16.52;;;7.60;;
32780;SDS011;19136;47.032;15.502;2023-06-24T02:03:50;13.45;;;6.95;;
32780;SDS011;19136;47.032;15.502;2023-06-24T02:06:17;16.35;;;8.85;;
32780;SDS011;19136;47.032;15.502;2023-06-24T02:08:44;15.27;;;7.78;;
32780;SDS011;19136;47.032;15.502;2023-06-24T02:11:13;15.32;;;7.65;;
32780;SDS011;19136;47.032;15.502;2023-06-24T02:13:39;11.88;;;7.38;;
32780;SDS011;19136;47.032;15.502;2023-06-24T02:16:13;17.80;;;7.50;;
32780;SDS011;19136;47.032;15.502;2023-06-24T02:18:40;13.45;;;6.68;;
32780;SDS011;19136;47.032;15.502;2023-06-24T02:21:08;15.73;;;6.82;;
32780;SDS011;19136;47.032;15.502;2023-06-24T02:23:35;19.17;;;6.43;;
32780;SDS011;19136;47.032;15.502;2023-06-24T02:26:04;13.70;;;6.80;;
32780;SDS011;19136;47.032;15.502;2023-06-24T02:28:31;13.27;;;6.70;;
32780;SDS011;19136;47.032;15.502;2023-06-24T02:30:58;13.60;;;6.45;;
32780;SDS011;19136;47.032;15.502;2023-06-24T02:33:24;17.58;;;6.53;;
32780;SDS011;19136;47.032;15.502;2023-06-24T02:35:50;13.50;;;6.22;;
32780;SDS011;19136;47.032;15.502;2023-06-24T02:38:15;15.48;;;6.50;;
32780;SDS011;19136;47.032;15.502;2023-06-24T02:40:43;11.35;;;5.32;;
32780;SDS011;19136;47.032;15.502;2023-06-24T02:43:09;15.10;;;8.90;;
32780;SDS011;19136;47.032;15.502;2023-06-24T02:45:35;19.75;;;6.53;;
32780;SDS011;19136;47.032;15.502;2023-06-24T02:48:01;13.07;;;6.25;;
32780;SDS011;19136;47.032;15.502;2023-06-24T02:50:28;8.05;;;5.35;;
32780;SDS011;19136;47.032;15.502;2023-06-24T02:52:54;11.85;;;5.25;;
32780;SDS011;19136;47.032;15.502;2023-06-24T02:55:25;8.68;;;5.22;;
32780;SDS011;19136;47.032;15.502;2023-06-24T02:57:57;8.23;;;5.03;;
32780;SDS011;19136;47.032;15.502;2023-06-24T03:00:43;7.47;;;4.78;;
32780;SDS011;19136;47.032;15.502;2023-06-24T03:03:09;11.02;;;5.82;;
32780;SDS011;19136;47.032;15.502;2023-06-24T03:05:41;13.45;;;6.32;;
32780;SDS011;19136;47.032;15.502;2023-06-24T03:08:10;10.32;;;5.30;;
32780;SDS011;19136;47.032;15.502;2023-06-24T03:10:36;12.50;;;5.43;;
32780;SDS011;19136;47.032;15.502;2023-06-24T03:13:04;8.55;;;4.63;;
32780;SDS011;19136;47.032;15.502;2023-06-24T03:15:39;7.70;;;4.60;;
32780;SDS011;19136;47.032;15.502;2023-06-24T03:18:05;9.10;;;4.78;;
32780;SDS011;19136;47.032;15.502;2023-06-24T03:20:34;6.43;;;4.43;;
32780;SDS011;19136;47.032;15.502;2023-06-24T03:23:06;10.02;;;4.35;;
32780;SDS011;19136;47.032;15.502;2023-06-24T03:25:33;6.75;;;4.40;;
32780;SDS011;19136;47.032;15.502;2023-06-24T03:27:59;10.30;;;4.13;;
32780;SDS011;19136;47.032;15.502;2023-06-24T03:30:41;6.40;;;3.78;;
32780;SDS011;19136;47.032;15.502;2023-06-24T03:33:06;7.95;;;5.18;;
32780;SDS011;19136;47.032;15.502;2023-06-24T03:35:32;7.22;;;4.32;;
32780;SDS011;19136;47.032;15.502;2023-06-24T03:38:02;8.05;;;4.80;;
32780;SDS011;19136;47.032;15.502;2023-06-24T03:40:30;12.10;;;4.78;;
32780;SDS011;19136;47.032;15.502;2023-06-24T03:42:56;12.18;;;4.68;;
32780;SDS011;19136;47.032;15.502;2023-06-24T03:45:22;8.93;;;4.47;;
32780;SDS011;19136;47.032;15.502;2023-06-24T03:47:48;7.85;;;4.35;;
32780;SDS011;19136;47.032;15.502;2023-06-24T03:50:13;8.02;;;4.50;;
32780;SDS011;19136;47.032;15.502;2023-06-24T03:52:39;10.30;;;3.70;;
32780;SDS011;19136;47.032;15.502;2023-06-24T03:55:05;12.88;;;4.72;;
32780;SDS011;19136;47.032;15.502;2023-06-24T03:57:31;10.10;;;4.10;;
32780;SDS011;19136;47.032;15.502;2023-06-24T03:59:57;16.15;;;4.38;;
32780;SDS011;19136;47.032;15.502;2023-06-24T04:02:23;9.93;;;4.30;;
32780;SDS011;19136;47.032;15.502;2023-06-24T04:04:48;6.20;;;4.38;;
32780;SDS011;19136;47.032;15.502;2023-06-24T04:07:16;13.15;;;4.60;;
32780;SDS011;19136;47.032;15.502;2023-06-24T04:09:55;8.73;;;4.63;;
32780;SDS011;19136;47.032;15.502;2023-06-24T04:12:21;6.90;;;3.80;;
32780;SDS011;19136;47.032;15.502;2023-06-24T04:14:47;7.13;;;4.57;;
32780;SDS011;19136;47.032;15.502;2023-06-24T04:17:13;7.78;;;4.20;;
32780;SDS011;19136;47.032;15.502;2023-06-24T04:19:39;9.73;;;4.05;;
32780;SDS011;19136;47.032;15.502;2023-06-24T04:22:05;8.98;;;4.30;;
32780;SDS011;19136;47.032;15.502;2023-06-24T04:24:31;7.63;;;3.75;;
32780;SDS011;19136;47.032;15.502;2023-06-24T04:26:57;7.65;;;4.05;;
32780;SDS011;19136;47.032;15.502;2023-06-24T04:29:23;15.45;;;4.25;;
32780;SDS011;19136;47.032;15.502;2023-06-24T04:31:49;10.10;;;4.70;;
32780;SDS011;19136;47.032;15.502;2023-06-24T04:34:15;10.10;;;5.43;;
32780;SDS011;19136;47.032;15.502;2023-06-24T04:36:41;10.82;;;4.93;;
32780;SDS011;19136;47.032;15.502;2023-06-24T04:39:07;11.18;;;4.20;;
32780;SDS011;19136;47.032;15.502;2023-06-24T04:41:33;12.85;;;4.85;;
32780;SDS011;19136;47.032;15.502;2023-06-24T04:43:59;9.73;;;4.43;;
32780;SDS011;19136;47.032;15.502;2023-06-24T04:46:25;8.38;;;4.68;;
32780;SDS011;19136;47.032;15.502;2023-06-24T04:48:51;7.85;;;4.10;;
32780;SDS011;19136;47.032;15.502;2023-06-24T04:51:16;9.85;;;4.70;;
32780;SDS011;19136;47.032;15.502;2023-06-24T04:53:42;8.13;;;4.45;;
32780;SDS011;19136;47.032;15.502;2023-06-24T04:56:08;13.85;;;4.95;;
32780;SDS011;19136;47.032;15.502;2023-06-24T04:58:34;9.63;;;5.90;;
32780;SDS011;19136;47.032;15.502;2023-06-24T05:01:00;9.80;;;5.47;;
32780;SDS011;19136;47.032;15.502;2023-06-24T05:03:25;10.88;;;5.78;;
32780;SDS011;19136;47.032;15.502;2023-06-24T05:05:51;9.80;;;6.35;;
32780;SDS011;19136;47.032;15.502;2023-06-24T05:08:17;8.27;;;5.65;;
32780;SDS011;19136;47.032;15.502;2023-06-24T05:10:43;9.38;;;5.60;;
32780;SDS011;19136;47.032;15.502;2023-06-24T05:13:11;13.57;;;6.03;;
32780;SDS011;19136;47.032;15.502;2023-06-24T05:15:40;12.18;;;6.70;;
32780;SDS011;19136;47.032;15.502;2023-06-24T05:18:06;9.45;;;6.43;;
32780;SDS011;19136;47.032;15.502;2023-06-24T05:20:32;11.45;;;6.28;;
32780;SDS011;19136;47.032;15.502;2023-06-24T05:22:58;10.57;;;6.00;;
32780;SDS011;19136;47.032;15.502;2023-06-24T05:25:24;14.07;;;6.35;;
32780;SDS011;19136;47.032;15.502;2023-06-24T05:27:50;12.98;;;5.55;;
32780;SDS011;19136;47.032;15.502;2023-06-24T05:30:16;8.05;;;5.55;;
32780;SDS011;19136;47.032;15.502;2023-06-24T05:32:42;12.45;;;6.75;;
32780;SDS011;19136;47.032;15.502;2023-06-24T05:35:08;14.02;;;6.32;;
32780;SDS011;19136;47.032;15.502;2023-06-24T05:37:34;8.10;;;6.15;;
32780;SDS011;19136;47.032;15.502;2023-06-24T05:40:00;10.43;;;6.55;;
32780;SDS011;19136;47.032;15.502;2023-06-24T05:42:27;11.50;;;5.72;;
32780;SDS011;19136;47.032;15.502;2023-06-24T05:44:53;11.27;;;6.43;;
32780;SDS011;19136;47.032;15.502;2023-06-24T05:47:19;8.88;;;6.00;;
32780;SDS011;19136;47.032;15.502;2023-06-24T05:49:44;9.32;;;6.07;;
32780;SDS011;19136;47.032;15.502;2023-06-24T05:52:11;13.60;;;5.78;;
32780;SDS011;19136;47.032;15.502;2023-06-24T05:54:37;12.05;;;5.57;;
32780;SDS011;19136;47.032;15.502;2023-06-24T05:57:03;11.90;;;5.47;;
32780;SDS011;19136;47.032;15.502;2023-06-24T05:59:31;8.52;;;5.85;;
32780;SDS011;19136;47.032;15.502;2023-06-24T06:01:57;10.35;;;5.68;;
32780;SDS011;19136;47.032;15.502;2023-06-24T06:04:23;16.52;;;8.13;;
32780;SDS011;19136;47.032;15.502;2023-06-24T06:06:49;13.45;;;6.47;;
32780;SDS011;19136;47.032;15.502;2023-06-24T06:09:15;9.60;;;5.18;;
32780;SDS011;19136;47.032;15.502;2023-06-24T06:11:43;10.73;;;5.50;;
32780;SDS011;19136;47.032;15.502;2023-06-24T06:14:11;10.38;;;4.93;;
32780;SDS011;19136;47.032;15.502;2023-06-24T06:16:37;11.10;;;5.00;;
32780;SDS011;19136;47.032;15.502;2023-06-24T06:19:06;9.45;;;5.28;;
32780;SDS011;19136;47.032;15.502;2023-06-24T06:21:32;9.40;;;5.53;;
32780;SDS011;19136;47.032;15.502;2023-06-24T06:23:58;7.63;;;5.07;;
32780;SDS011;19136;47.032;15.502;2023-06-24T06:26:24;11.80;;;5.68;;
32780;SDS011;19136;47.032;15.502;2023-06-24T06:28:50;6.43;;;4.90;;
32780;SDS011;19136;47.032;15.502;2023-06-24T06:31:18;7.90;;;5.38;;
32780;SDS011;19136;47.032;15.502;2023-06-24T06:33:44;7.53;;;5.70;;
32780;SDS011;19136;47.032;15.502;2023-06-24T06:36:10;10.38;;;5.32;;
32780;SDS011;19136;47.032;15.502;2023-06-24T06:38:35;11.43;;;5.57;;
32780;SDS011;19136;47.032;15.502;2023-06-24T06:41:01;10.88;;;5.47;;
32780;SDS011;19136;47.032;15.502;2023-06-24T06:43:26;8.57;;;5.68;;
32780;SDS011;19136;47.032;15.502;2023-06-24T06:45:52;7.82;;;5.05;;
32780;SDS011;19136;47.032;15.502;2023-06-24T06:48:18;12.93;;;5.30;;
32780;SDS011;19136;47.032;15.502;2023-06-24T06:50:47;10.75;;;4.70;;
32780;SDS011;19136;47.032;15.502;2023-06-24T06:53:13;9.32;;;5.13;;
32780;SDS011;19136;47.032;15.502;2023-06-24T06:55:39;8.93;;;4.20;;
32780;SDS011;19136;47.032;15.502;2023-06-24T06:58:05;6.30;;;3.83;;
32780;SDS011;19136;47.032;15.502;2023-06-24T07:00:31;11.52;;;4.03;;
32780;SDS011;19136;47.032;15.502;2023-06-24T07:02:57;6.07;;;3.65;;
32780;SDS011;19136;47.032;15.502;2023-06-24T07:05:25;6.47;;;3.35;;
32780;SDS011;19136;47.032;15.502;2023-06-24T07:07:51;4.82;;;2.97;;
32780;SDS011;19136;47.032;15.502;2023-06-24T07:10:19;4.05;;;2.90;;
32780;SDS011;19136;47.032;15.502;2023-06-24T07:12:45;2.42;;;1.70;;
32780;SDS011;19136;47.032;15.502;2023-06-24T07:15:11;2.03;;;1.48;;
32780;SDS011;19136;47.032;15.502;2023-06-24T07:17:37;6.40;;;1.17;;
32780;SDS011;19136;47.032;15.502;2023-06-24T07:20:03;3.03;;;1.80;;
32780;SDS011;19136;47.032;15.502;2023-06-24T07:22:29;2.50;;;1.27;;
32780;SDS011;19136;47.032;15.502;2023-06-24T07:24:56;3.13;;;1.13;;
32780;SDS011;19136;47.032;15.502;2023-06-24T07:27:22;2.42;;;1.25;;
32780;SDS011;19136;47.032;15.502;2023-06-24T07:29:48;1.67;;;1.05;;
32780;SDS011;19136;47.032;15.502;2023-06-24T07:32:13;1.30;;;1.10;;
32780;SDS011;19136;47.032;15.502;2023-06-24T07:34:39;4.63;;;1.30;;
32780;SDS011;19136;47.032;15.502;2023-06-24T07:37:05;1.27;;;0.95;;
32780;SDS011;19136;47.032;15.502;2023-06-24T07:39:31;1.83;;;1.00;;
32780;SDS011;19136;47.032;15.502;2023-06-24T07:41:57;1.33;;;1.08;;
32780;SDS011;19136;47.032;15.502;2023-06-24T07:44:22;5.85;;;1.27;;
32780;SDS011;19136;47.032;15.502;2023-06-24T07:46:48;4.47;;;1.42;;
32780;SDS011;19136;47.032;15.502;2023-06-24T07:49:16;1.27;;;0.70;;
32780;SDS011;19136;47.032;15.502;2023-06-24T07:51:43;1.98;;;0.90;;
32780;SDS011;19136;47.032;15.502;2023-06-24T07:54:10;1.55;;;0.93;;
32780;SDS011;19136;47.032;15.502;2023-06-24T07:56:36;0.90;;;0.68;;
32780;SDS011;19136;47.032;15.502;2023-06-24T07:59:02;1.55;;;0.57;;
32780;SDS011;19136;47.032;15.502;2023-06-24T08:01:28;0.90;;;0.32;;
32780;SDS011;19136;47.032;15.502;2023-06-24T08:03:53;1.13;;;0.60;;
32780;SDS011;19136;47.032;15.502;2023-06-24T08:06:19;1.17;;;0.40;;
32780;SDS011;19136;47.032;15.502;2023-06-24T08:08:45;0.60;;;0.20;;
32780;SDS011;19136;47.032;15.502;2023-06-24T08:11:11;0.50;;;0.32;;
32780;SDS011;19136;47.032;15.502;2023-06-24T08:13:38;0.93;;;0.32;;
32780;SDS011;19136;47.032;15.502;2023-06-24T08:16:04;0.20;;;0.20;;
32780;SDS011;19136;47.032;15.502;2023-06-24T08:18:30;0.47;;;0.10;;
32780;SDS011;19136;47.032;15.502;2023-06-24T08:20:56;0.20;;;0.20;;
32780;SDS011;19136;47.032;15.502;2023-06-24T08:23:22;0.52;;;0.22;;
32780;SDS011;19136;47.032;15.502;2023-06-24T08:25:48;1.52;;;0.20;;
32780;SDS011;19136;47.032;15.502;2023-06-24T08:28:13;0.85;;;0.30;;
32780;SDS011;19136;47.032;15.502;2023-06-24T08:30:39;0.88;;;0.38;;
32780;SDS011;19136;47.032;15.502;2023-06-24T08:33:05;2.10;;;0.20;;
32780;SDS011;19136;47.032;15.502;2023-06-24T08:35:30;0.22;;;0.20;;
32780;SDS011;19136;47.032;15.502;2023-06-24T08:37:56;0.22;;;0.10;;
32780;SDS011;19136;47.032;15.502;2023-06-24T08:40:22;0.10;;;0.10;;
32780;SDS011;19136;47.032;15.502;2023-06-24T08:42:47;0.47;;;0.28;;
32780;SDS011;19136;47.032;15.502;2023-06-24T08:45:13;1.50;;;0.47;;
32780;SDS011;19136;47.032;15.502;2023-06-24T08:47:39;1.38;;;0.45;;
32780;SDS011;19136;47.032;15.502;2023-06-24T08:50:08;2.22;;;0.45;;
32780;SDS011;19136;47.032;15.502;2023-06-24T08:52:36;0.35;;;0.20;;
32780;SDS011;19136;47.032;15.502;2023-06-24T08:55:04;0.77;;;0.30;;
32780;SDS011;19136;47.032;15.502;2023-06-24T08:57:31;0.20;;;0.10;;
32780;SDS011;19136;47.032;15.502;2023-06-24T08:59:57;0.70;;;0.13;;
32780;SDS011;19136;47.032;15.502;2023-06-24T09:02:23;2.08;;;0.40;;
32780;SDS011;19136;47.032;15.502;2023-06-24T09:04:50;2.20;;;0.90;;
32780;SDS011;19136;47.032;15.502;2023-06-24T09:07:24;5.95;;;3.70;;
32780;SDS011;19136;47.032;15.502;2023-06-24T09:09:52;0.88;;;0.50;;
32780;SDS011;19136;47.032;15.502;2023-06-24T09:12:17;1.48;;;0.20;;
32780;SDS011;19136;47.032;15.502;2023-06-24T09:14:47;0.20;;;0.17;;
32780;SDS011;19136;47.032;15.502;2023-06-24T09:17:13;2.83;;;0.28;;
32780;SDS011;19136;47.032;15.502;2023-06-24T09:19:39;3.65;;;1.23;;
32780;SDS011;19136;47.032;15.502;2023-06-24T09:22:07;0.60;;;0.40;;
32780;SDS011;19136;47.032;15.502;2023-06-24T09:24:34;0.65;;;0.10;;
32780;SDS011;19136;47.032;15.502;2023-06-24T09:27:01;1.80;;;1.00;;
32780;SDS011;19136;47.032;15.502;2023-06-24T09:29:27;0.75;;;0.20;;
32780;SDS011;19136;47.032;15.502;2023-06-24T09:31:53;0.10;;;0.10;;
32780;SDS011;19136;47.032;15.502;2023-06-24T09:34:24;1.52;;;0.20;;
32780;SDS011;19136;47.032;15.502;2023-06-24T09:36:53;0.20;;;0.20;;
32780;SDS011;19136;47.032;15.502;2023-06-24T09:39:20;0.30;;;0.13;;
32780;SDS011;19136;47.032;15.502;2023-06-24T09:41:56;0.10;;;0.10;;
32780;SDS011;19136;47.032;15.502;2023-06-24T09:44:22;1.00;;;0.10;;
32780;SDS011;19136;47.032;15.502;2023-06-24T09:46:48;0.52;;;0.10;;
32780;SDS011;19136;47.032;15.502;2023-06-24T09:49:14;0.98;;;0.20;;
32780;SDS011;19136;47.032;15.502;2023-06-24T09:51:42;1.45;;;0.10;;
32780;SDS011;19136;47.032;15.502;2023-06-24T09:54:09;0.10;;;0.10;;
32780;SDS011;19136;47.032;15.502;2023-06-24T09:56:35;0.17;;;0.10;;
32780;SDS011;19136;47.032;15.502;2023-06-24T09:59:04;0.32;;;0.10;;
32780;SDS011;19136;47.032;15.502;2023-06-24T10:01:31;4.97;;;0.22;;
32780;SDS011;19136;47.032;15.502;2023-06-24T10:04:04;2.88;;;1.00;;
32780;SDS011;19136;47.032;15.502;2023-06-24T10:06:31;1.30;;;0.57;;
32780;SDS011;19136;47.032;15.502;2023-06-24T10:08:58;5.57;;;0.25;;
32780;SDS011;19136;47.032;15.502;2023-06-24T10:11:23;0.57;;;0.20;;
32780;SDS011;19136;47.032;15.502;2023-06-24T10:13:49;0.60;;;0.32;;
32780;SDS011;19136;47.032;15.502;2023-06-24T10:16:15;0.30;;;0.30;;
32780;SDS011;19136;47.032;15.502;2023-06-24T10:18:43;0.70;;;0.20;;
32780;SDS011;19136;47.032;15.502;2023-06-24T10:21:09;0.05;;;0.00;;
32780;SDS011;19136;47.032;15.502;2023-06-24T10:23:42;0.20;;;0.10;;
32780;SDS011;19136;47.032;15.502;2023-06-24T10:26:25;0.90;;;0.10;;
32780;SDS011;19136;47.032;15.502;2023-06-24T10:37:47;2.10;;;0.40;;
32780;SDS011;19136;47.032;15.502;2023-06-24T10:39:50;0.20;;;0.10;;
32780;SDS011;19136;47.032;15.502;2023-06-24T10:44:57;1.85;;;0.00;;
32780;SDS011;19136;47.032;15.502;2023-06-24T10:47:25;0.30;;;0.20;;
32780;SDS011;19136;47.032;15.502;2023-06-24T10:49:51;2.53;;;0.20;;
32780;SDS011;19136;47.032;15.502;2023-06-24T10:52:18;0.13;;;0.10;;
32780;SDS011;19136;47.032;15.502;2023-06-24T10:54:48;4.65;;;0.10;;
32780;SDS011;19136;47.032;15.502;2023-06-24T10:57:14;0.10;;;0.10;;
32780;SDS011;19136;47.032;15.502;2023-06-24T10:59:41;0.13;;;0.10;;
32780;SDS011;19136;47.032;15.502;2023-06-24T11:02:08;0.22;;;0.10;;
32780;SDS011;19136;47.032;15.502;2023-06-24T11:04:47;0.22;;;0.10;;
32780;SDS011;19136;47.032;15.502;2023-06-24T11:07:13;5.10;;;0.10;;
32780;SDS011;19136;47.032;15.502;2023-06-24T11:09:42;0.10;;;0.05;;
32780;SDS011;19136;47.032;15.502;2023-06-24T11:12:13;0.22;;;0.10;;
32780;SDS011;19136;47.032;15.502;2023-06-24T11:14:39;3.00;;;0.10;;
32780;SDS011;19136;47.032;15.502;2023-06-24T11:17:05;0.10;;;0.10;;
32780;SDS011;19136;47.032;15.502;2023-06-24T11:19:31;0.20;;;0.10;;
32780;SDS011;19136;47.032;15.502;2023-06-24T11:22:00;3.55;;;0.40;;
32780;SDS011;19136;47.032;15.502;2023-06-24T11:24:27;0.85;;;0.10;;
32780;SDS011;19136;47.032;15.502;2023-06-24T11:26:53;0.65;;;0.50;;
32780;SDS011;19136;47.032;15.502;2023-06-24T11:29:20;0.70;;;0.17;;
32780;SDS011;19136;47.032;15.502;2023-06-24T11:31:45;1.83;;;0.10;;
32780;SDS011;19136;47.032;15.502;2023-06-24T11:34:11;1.65;;;0.10;;
32780;SDS011;19136;47.032;15.502;2023-06-24T11:36:37;0.55;;;0.30;;
32780;SDS011;19136;47.032;15.502;2023-06-24T11:39:03;0.40;;;0.10;;
32780;SDS011;19136;47.032;15.502;2023-06-24T11:41:29;0.22;;;0.15;;
32780;SDS011;19136;47.032;15.502;2023-06-24T11:43:54;0.20;;;0.10;;
32780;SDS011;19136;47.032;15.502;2023-06-24T11:46:30;0.00;;;0.00;;
32780;SDS011;19136;47.032;15.502;2023-06-24T11:49:05;0.93;;;0.10;;
32780;SDS011;19136;47.032;15.502;2023-06-24T11:51:31;4.05;;;0.10;;
32780;SDS011;19136;47.032;15.502;2023-06-24T11:54:01;0.10;;;0.10;;
32780;SDS011;19136;47.032;15.502;2023-06-24T11:56:42;0.20;;;0.10;;
32780;SDS011;19136;47.032;15.502;2023-06-24T11:59:16;1.52;;;0.10;;
32780;SDS011;19136;47.032;15.502;2023-06-24T12:01:56;0.47;;;0.10;;
32780;SDS011;19136;47.032;15.502;2023-06-24T12:04:27;0.98;;;0.10;;
32780;SDS011;19136;47.032;15.502;2023-06-24T12:06:54;13.85;;;1.27;;
32780;SDS011;19136;47.032;15.502;2023-06-24T12:09:19;0.10;;;0.10;;
32780;SDS011;19136;47.032;15.502;2023-06-24T12:11:45;1.55;;;0.10;;
32780;SDS011;19136;47.032;15.502;2023-06-24T12:14:11;0.65;;;0.10;;
32780;SDS011;19136;47.032;15.502;2023-06-24T12:16:37;0.10;;;0.10;;
32780;SDS011;19136;47.032;15.502;2023-06-24T12:19:04;0.20;;;0.20;;
32780;SDS011;19136;47.032;15.502;2023-06-24T12:21:29;0.13;;;0.10;;
32780;SDS011;19136;47.032;15.502;2023-06-24T12:23:55;0.35;;;0.10;;
32780;SDS011;19136;47.032;15.502;2023-06-24T12:26:21;2.05;;;0.25;;
32780;SDS011;19136;47.032;15.502;2023-06-24T12:28:46;0.22;;;0.10;;
32780;SDS011;19136;47.032;15.502;2023-06-24T12:31:12;0.10;;;0.10;;
32780;SDS011;19136;47.032;15.502;2023-06-24T12:33:37;2.05;;;0.20;;
32780;SDS011;19136;47.032;15.502;2023-06-24T12:36:03;2.00;;;0.10;;
32780;SDS011;19136;47.032;15.502;2023-06-24T12:38:29;0.55;;;0.20;;
32780;SDS011;19136;47.032;15.502;2023-06-24T12:40:55;0.20;;;0.20;;
32780;SDS011;19136;47.032;15.502;2023-06-24T12:43:22;0.20;;;0.15;;
32780;SDS011;19136;47.032;15.502;2023-06-24T12:45:47;0.88;;;0.17;;
32780;SDS011;19136;47.032;15.502;2023-06-24T12:48:13;0.20;;;0.10;;
32780;SDS011;19136;47.032;15.502;2023-06-24T12:50:39;0.77;;;0.30;;
32780;SDS011;19136;47.032;15.502;2023-06-24T12:53:05;0.32;;;0.10;;
32780;SDS011;19136;47.032;15.502;2023-06-24T12:55:31;0.22;;;0.20;;
32780;SDS011;19136;47.032;15.502;2023-06-24T12:57:56;0.30;;;0.20;;
32780;SDS011;19136;47.032;15.502;2023-06-24T13:00:23;0.20;;;0.20;;
32780;SDS011;19136;47.032;15.502;2023-06-24T13:02:49;0.10;;;0.10;;
32780;SDS011;19136;47.032;15.502;2023-06-24T13:05:15;0.10;;;0.10;;
32780;SDS011;19136;47.032;15.502;2023-06-24T13:07:41;0.50;;;0.10;;
32780;SDS011;19136;47.032;15.502;2023-06-24T13:10:07;2.42;;;0.30;;
32780;SDS011;19136;47.032;15.502;2023-06-24T13:12:34;1.05;;;0.20;;
32780;SDS011;19136;47.032;15.502;2023-06-24T13:15:00;2.60;;;0.20;;
32780;SDS011;19136;47.032;15.502;2023-06-24T13:17:26;0.43;;;0.13;;
32780;SDS011;19136;47.032;15.502;2023-06-24T13:19:51;0.47;;;0.20;;
32780;SDS011;19136;47.032;15.502;2023-06-24T13:22:17;3.00;;;0.40;;
32780;SDS011;19136;47.032;15.502;2023-06-24T13:24:44;0.38;;;0.20;;
32780;SDS011;19136;47.032;15.502;2023-06-24T13:27:10;0.30;;;0.20;;
32780;SDS011;19136;47.032;15.502;2023-06-24T13:29:36;1.08;;;0.20;;
32780;SDS011;19136;47.032;15.502;2023-06-24T13:32:02;1.13;;;0.30;;
32780;SDS011;19136;47.032;15.502;2023-06-24T13:34:28;2.53;;;1.35;;
32780;SDS011;19136;47.032;15.502;2023-06-24T13:36:53;8.73;;;2.70;;
32780;SDS011;19136;47.032;15.502;2023-06-24T13:39:19;4.18;;;0.80;;
32780;SDS011;19136;47.032;15.502;2023-06-24T13:41:48;1.27;;;0.40;;
32780;SDS011;19136;47.032;15.502;2023-06-24T13:44:13;0.52;;;0.30;;
32780;SDS011;19136;47.032;15.502;2023-06-24T13:46:39;1.48;;;0.40;;
32780;SDS011;19136;47.032;15.502;2023-06-24T13:49:05;1.45;;;0.47;;
32780;SDS011;19136;47.032;15.502;2023-06-24T13:51:30;1.95;;;0.40;;
32780;SDS011;19136;47.032;15.502;2023-06-24T13:53:56;0.25;;;0.20;;
32780;SDS011;19136;47.032;15.502;2023-06-24T13:56:23;0.60;;;0.30;;
32780;SDS011;19136;47.032;15.502;2023-06-24T13:58:49;0.43;;;0.32;;
32780;SDS011;19136;47.032;15.502;2023-06-24T14:01:15;1.30;;;0.40;;
32780;SDS011;19136;47.032;15.502;2023-06-24T14:03:42;0.30;;;0.30;;
32780;SDS011;19136;47.032;15.502;2023-06-24T14:06:08;1.05;;;0.45;;
32780;SDS011;19136;47.032;15.502;2023-06-24T14:08:34;0.70;;;0.40;;
32780;SDS011;19136;47.032;15.502;2023-06-24T14:11:00;2.65;;;1.00;;
32780;SDS011;19136;47.032;15.502;2023-06-24T14:13:26;0.40;;;0.30;;
32780;SDS011;19136;47.032;15.502;2023-06-24T14:15:53;2.92;;;0.82;;
32780;SDS011;19136;47.032;15.502;2023-06-24T14:18:19;0.95;;;0.75;;
32780;SDS011;19136;47.032;15.502;2023-06-24T14:20:45;2.80;;;1.77;;
32780;SDS011;19136;47.032;15.502;2023-06-24T14:23:10;0.50;;;0.40;;
32780;SDS011;19136;47.032;15.502;2023-06-24T14:25:36;1.00;;;0.50;;
32780;SDS011;19136;47.032;15.502;2023-06-24T14:28:05;1.45;;;0.45;;
32780;SDS011;19136;47.032;15.502;2023-06-24T14:30:31;2.58;;;0.60;;
32780;SDS011;19136;47.032;15.502;2023-06-24T14:32:57;1.15;;;0.63;;
32780;SDS011;19136;47.032;15.502;2023-06-24T14:35:23;2.05;;;0.60;;
32780;SDS011;19136;47.032;15.502;2023-06-24T14:37:48;1.17;;;0.70;;
32780;SDS011;19136;47.032;15.502;2023-06-24T14:40:14;3.38;;;0.80;;
32780;SDS011;19136;47.032;15.502;2023-06-24T14:42:40;1.58;;;0.60;;
32780;SDS011;19136;47.032;15.502;2023-06-24T14:45:05;1.25;;;0.57;;
32780;SDS011;19136;47.032;15.502;2023-06-24T14:47:31;1.13;;;0.60;;
32780;SDS011;19136;47.032;15.502;2023-06-24T14:49:57;0.57;;;0.47;;